createdAt,value
2018-04-10T00:00:18.333Z,1000.6
2018-04-10T00:00:58.953Z,1000.58
2018-04-10T00:01:39.522Z,1000.63
2018-04-10T00:02:20.094Z,1000.64
2018-04-10T00:03:00.653Z,1000.63
2018-04-10T00:03:41.230Z,1000.59
2018-04-10T00:04:21.810Z,1000.64
2018-04-10T00:05:02.422Z,1000.63
2018-04-10T00:05:42.983Z,1000.59
2018-04-10T00:06:23.559Z,1000.58
2018-04-10T00:07:04.171Z,1000.62
2018-04-10T00:07:44.686Z,1000.61
2018-04-10T00:08:25.303Z,1000.61
2018-04-10T00:09:05.900Z,1000.59
2018-04-10T00:09:46.463Z,1000.57
2018-04-10T00:10:27.043Z,1000.56
2018-04-10T00:11:07.604Z,1000.6
2018-04-10T00:11:48.168Z,1000.57
2018-04-10T00:12:28.765Z,1000.54
2018-04-10T00:13:09.320Z,1000.55
2018-04-10T00:13:49.905Z,1000.52
2018-04-10T00:14:30.492Z,1000.52
2018-04-10T00:15:11.048Z,1000.5
2018-04-10T00:15:51.604Z,1000.51
2018-04-10T00:16:32.163Z,1000.5
2018-04-10T00:17:12.729Z,1000.52
2018-04-10T00:17:53.302Z,1000.51
2018-04-10T00:18:33.866Z,1000.5
2018-04-10T00:19:14.446Z,1000.51
2018-04-10T00:19:55.024Z,1000.5
2018-04-10T00:20:35.590Z,1000.53
2018-04-10T00:21:16.150Z,1000.57
2018-04-10T00:21:56.731Z,1000.57
2018-04-10T00:22:37.301Z,1000.56
2018-04-10T00:23:17.870Z,1000.54
2018-04-10T00:23:58.513Z,1000.56
2018-04-10T00:24:39.072Z,1000.54
2018-04-10T00:25:19.647Z,1000.55
2018-04-10T00:26:00.215Z,1000.54
2018-04-10T00:26:40.766Z,1000.53
2018-04-10T00:27:21.333Z,1000.5
2018-04-10T00:28:01.896Z,1000.52
2018-04-10T00:28:42.456Z,1000.5
2018-04-10T00:29:23.026Z,1000.51
2018-04-10T00:30:03.601Z,1000.51
2018-04-10T00:30:44.174Z,1000.51
2018-04-10T00:31:24.755Z,1000.51
2018-04-10T00:32:05.344Z,1000.51
2018-04-10T00:32:45.966Z,1000.52
2018-04-10T00:33:26.503Z,1000.48
2018-04-10T00:34:07.115Z,1000.46
2018-04-10T00:34:47.708Z,1000.47
2018-04-10T00:35:28.274Z,1000.49
2018-04-10T00:36:08.844Z,1000.47
2018-04-10T00:36:49.399Z,1000.48
2018-04-10T00:37:29.976Z,1000.46
2018-04-10T00:38:10.538Z,1000.49
2018-04-10T00:38:51.130Z,1000.45
2018-04-10T00:39:31.720Z,1000.45
2018-04-10T00:40:12.281Z,1000.45
2018-04-10T00:40:52.839Z,1000.44
2018-04-10T00:41:33.407Z,1000.43
2018-04-10T00:42:14.084Z,1000.41
2018-04-10T00:42:54.637Z,1000.39
2018-04-10T00:43:35.210Z,1000.36
2018-04-10T00:44:15.795Z,1000.41
2018-04-10T00:44:56.358Z,1000.4
2018-04-10T00:45:36.947Z,1000.35
2018-04-10T00:46:17.523Z,1000.37
2018-04-10T00:46:58.087Z,1000.34
2018-04-10T00:47:38.646Z,1000.4
2018-04-10T00:48:19.207Z,1000.35
2018-04-10T00:48:59.768Z,1000.33
2018-04-10T00:49:40.374Z,1000.3
2018-04-10T00:50:20.936Z,1000.31
2018-04-10T00:51:01.512Z,1000.3
2018-04-10T00:51:42.060Z,1000.33
2018-04-10T00:52:22.607Z,1000.31
2018-04-10T00:53:03.174Z,1000.32
2018-04-10T00:53:43.805Z,1000.31
2018-04-10T00:54:24.425Z,1000.32
2018-04-10T00:55:05.028Z,1000.32
2018-04-10T00:55:45.590Z,1000.29
2018-04-10T00:56:26.194Z,1000.32
2018-04-10T00:57:06.753Z,1000.34
2018-04-10T00:57:47.341Z,1000.28
2018-04-10T00:58:27.933Z,1000.33
2018-04-10T00:59:08.516Z,1000.32
2018-04-10T00:59:49.127Z,1000.31
2018-04-10T01:00:29.686Z,1000.29
2018-04-10T01:01:10.257Z,1000.35
2018-04-10T01:01:50.908Z,1000.33
2018-04-10T01:02:31.507Z,1000.31
2018-04-10T01:03:12.067Z,1000.33
2018-04-10T01:03:52.633Z,1000.28
2018-04-10T01:04:33.200Z,1000.31
2018-04-10T01:05:13.762Z,1000.29
2018-04-10T01:05:54.337Z,1000.32
2018-04-10T01:06:34.899Z,1000.35
2018-04-10T01:07:15.467Z,1000.35
2018-04-10T01:07:56.066Z,1000.33
2018-04-10T01:08:36.634Z,1000.36
2018-04-10T01:09:17.220Z,1000.32
2018-04-10T01:09:57.975Z,1000.34
2018-04-10T01:10:38.658Z,1000.32
2018-04-10T01:11:19.230Z,1000.32
2018-04-10T01:11:59.794Z,1000.31
2018-04-10T01:12:40.380Z,1000.23
2018-04-10T01:13:20.945Z,1000.28
2018-04-10T01:14:01.561Z,1000.24
2018-04-10T01:14:42.187Z,1000.23
2018-04-10T01:15:22.750Z,1000.21
2018-04-10T01:16:03.310Z,1000.23
2018-04-10T01:16:43.871Z,1000.22
2018-04-10T01:17:24.434Z,1000.22
2018-04-10T01:18:05.064Z,1000.23
2018-04-10T01:18:45.725Z,1000.21
2018-04-10T01:19:26.287Z,1000.2
2018-04-10T01:20:06.872Z,1000.24
2018-04-10T01:20:47.457Z,1000.22
2018-04-10T01:21:28.030Z,1000.2
2018-04-10T01:22:08.661Z,1000.18
2018-04-10T01:22:49.251Z,1000.26
2018-04-10T01:23:29.818Z,1000.17
2018-04-10T01:24:10.373Z,1000.15
2018-04-10T01:24:50.942Z,1000.19
2018-04-10T01:25:31.509Z,1000.15
2018-04-10T01:26:12.149Z,1000.19
2018-04-10T01:26:52.762Z,1000.19
2018-04-10T01:27:33.329Z,1000.12
2018-04-10T01:28:13.899Z,1000.1
2018-04-10T01:28:54.515Z,1000.11
2018-04-10T01:29:35.086Z,1000.15
2018-04-10T01:30:15.659Z,1000.15
2018-04-10T01:30:56.228Z,1000.13
2018-04-10T01:31:36.787Z,1000.11
2018-04-10T01:32:17.357Z,1000.11
2018-04-10T01:32:57.917Z,1000.12
2018-04-10T01:33:38.474Z,1000.12
2018-04-10T01:34:19.045Z,1000.14
2018-04-10T01:34:59.614Z,1000.08
2018-04-10T01:35:40.277Z,1000.1
2018-04-10T01:36:20.846Z,1000.09
2018-04-10T01:37:01.408Z,1000.14
2018-04-10T01:37:41.987Z,1000.14
2018-04-10T01:38:22.550Z,1000.17
2018-04-10T01:39:03.133Z,1000.17
2018-04-10T01:39:43.714Z,1000.17
2018-04-10T01:40:24.335Z,1000.1
2018-04-10T01:41:04.914Z,1000.11
2018-04-10T01:41:45.476Z,1000.14
2018-04-10T01:42:26.055Z,1000.1
2018-04-10T01:43:06.637Z,1000.11
2018-04-10T01:43:47.283Z,1000.08
2018-04-10T01:44:27.843Z,1000.12
2018-04-10T01:45:08.433Z,1000.06
2018-04-10T01:45:49.030Z,1000.1
2018-04-10T01:46:29.579Z,1000.12
2018-04-10T01:47:10.179Z,1000.07
2018-04-10T01:47:50.746Z,1000.08
2018-04-10T01:48:31.322Z,1000.08
2018-04-10T01:49:11.893Z,1000.11
2018-04-10T01:49:52.459Z,1000.06
2018-04-10T01:50:33.012Z,1000.05
2018-04-10T01:51:13.627Z,1000.05
2018-04-10T01:51:54.205Z,1000.06
2018-04-10T01:52:34.764Z,1000.03
2018-04-10T01:53:15.349Z,1000.05
2018-04-10T01:53:56.032Z,1000.03
2018-04-10T01:54:36.566Z,1000.02
2018-04-10T01:55:17.136Z,1000.03
2018-04-10T01:55:57.693Z,1000
2018-04-10T01:56:38.317Z,1000.01
2018-04-10T01:57:18.891Z,1000.02
2018-04-10T01:57:59.448Z,1000.06
2018-04-10T01:58:40.015Z,1000.05
2018-04-10T01:59:20.585Z,1000.06
2018-04-10T02:00:01.148Z,1000.02
2018-04-10T02:00:41.814Z,1000.05
2018-04-10T02:01:22.401Z,1000.08
2018-04-10T02:02:02.966Z,1000.11
2018-04-10T02:02:43.533Z,1000.09
2018-04-10T02:03:24.097Z,1000.1
2018-04-10T02:04:04.735Z,1000.11
2018-04-10T02:04:45.287Z,1000.06
2018-04-10T02:05:25.844Z,1000.11
2018-04-10T02:06:06.460Z,1000.12
2018-04-10T02:06:47.007Z,1000.11
2018-04-10T02:07:27.568Z,1000.12
2018-04-10T02:08:08.193Z,1000.15
2018-04-10T02:08:48.760Z,1000.15
2018-04-10T02:09:35.889Z,1000.16
2018-04-10T02:16:30.857Z,1000.06
2018-04-10T02:17:11.450Z,1000.07
2018-04-10T02:17:52.040Z,1000.08
2018-04-10T02:18:32.627Z,1000.05
2018-04-10T02:19:13.197Z,1000.07
2018-04-10T02:19:53.792Z,1000.07
2018-04-10T02:20:34.368Z,1000.03
2018-04-10T02:21:14.949Z,1000.05
2018-04-10T02:21:55.541Z,1000.05
2018-04-10T02:22:36.096Z,999.99
2018-04-10T02:23:16.670Z,1000.01
2018-04-10T02:23:57.240Z,1000.05
2018-04-10T02:24:37.793Z,1000.04
2018-04-10T02:25:18.369Z,1000.02
2018-04-10T02:25:59.055Z,1000.05
2018-04-10T02:26:39.782Z,1000.06
2018-04-10T02:27:20.339Z,1000.08
2018-04-10T02:28:00.906Z,1000.07
2018-04-10T02:28:41.469Z,1000.03
2018-04-10T02:29:22.015Z,1000.04
2018-04-10T02:30:02.586Z,1000.07
2018-04-10T02:30:43.137Z,1000.07
2018-04-10T02:31:23.740Z,1000.02
2018-04-10T02:32:04.299Z,1000.11
2018-04-10T02:32:44.876Z,1000.09
2018-04-10T02:33:25.446Z,1000.04
2018-04-10T02:34:05.995Z,1000.06
2018-04-10T02:34:46.545Z,1000.07
2018-04-10T02:35:27.108Z,1000.07
2018-04-10T02:36:07.693Z,1000.1
2018-04-10T02:36:48.261Z,1000.08
2018-04-10T02:37:28.831Z,1000.09
2018-04-10T02:38:09.390Z,1000.05
2018-04-10T02:38:50.032Z,1000.07
2018-04-10T02:39:30.666Z,1000.06
2018-04-10T02:40:11.225Z,1000.02
2018-04-10T02:40:51.860Z,1000.04
2018-04-10T02:41:32.417Z,1000.02
2018-04-10T02:42:13.022Z,1000.05
2018-04-10T02:42:53.586Z,1000.03
2018-04-10T02:43:34.300Z,999.99
2018-04-10T02:44:14.893Z,999.99
2018-04-10T02:44:55.447Z,999.93
2018-04-10T02:45:36.039Z,999.92
2018-04-10T02:46:16.618Z,999.94
2018-04-10T02:46:57.290Z,999.96
2018-04-10T02:47:37.852Z,999.98
2018-04-10T02:48:18.416Z,999.95
2018-04-10T02:48:59.032Z,999.92
2018-04-10T02:49:39.544Z,999.93
2018-04-10T02:50:20.102Z,999.92
2018-04-10T02:51:00.715Z,999.94
2018-04-10T02:51:41.329Z,999.94
2018-04-10T02:52:21.902Z,999.91
2018-04-10T02:53:02.467Z,999.91
2018-04-10T02:53:43.201Z,999.93
2018-04-10T02:54:23.708Z,999.94
2018-04-10T02:55:04.261Z,999.92
2018-04-10T02:55:44.834Z,999.92
2018-04-10T02:56:25.399Z,999.93
2018-04-10T02:57:05.972Z,999.92
2018-04-10T02:57:46.535Z,999.91
2018-04-10T02:58:27.101Z,999.88
2018-04-10T02:59:07.653Z,999.87
2018-04-10T02:59:48.229Z,999.87
2018-04-10T03:00:28.955Z,999.88
2018-04-10T03:01:09.540Z,999.86
2018-04-10T03:01:50.102Z,999.87
2018-04-10T03:02:30.704Z,999.88
2018-04-10T03:03:11.264Z,999.83
2018-04-10T03:03:51.868Z,999.86
2018-04-10T03:04:32.560Z,999.85
2018-04-10T03:05:13.124Z,999.79
2018-04-10T03:05:53.681Z,999.86
2018-04-10T03:06:34.257Z,999.87
2018-04-10T03:07:14.826Z,999.83
2018-04-10T03:07:55.419Z,999.86
2018-04-10T03:08:36.010Z,999.82
2018-04-10T03:09:16.579Z,999.88
2018-04-10T03:09:57.158Z,999.86
2018-04-10T03:10:37.860Z,999.87
2018-04-10T03:11:18.415Z,999.84
2018-04-10T03:11:59.034Z,999.89
2018-04-10T03:12:39.595Z,999.86
2018-04-10T03:13:20.159Z,999.87
2018-04-10T03:14:00.716Z,999.89
2018-04-10T03:14:41.272Z,999.87
2018-04-10T03:15:21.837Z,999.9
2018-04-10T03:16:02.455Z,999.9
2018-04-10T03:16:43.030Z,999.9
2018-04-10T03:17:23.586Z,999.87
2018-04-10T03:18:04.148Z,999.85
2018-04-10T03:18:44.710Z,999.85
2018-04-10T03:19:25.273Z,999.89
2018-04-10T03:20:05.846Z,999.86
2018-04-10T03:20:46.563Z,999.82
2018-04-10T03:21:27.137Z,999.84
2018-04-10T03:22:07.709Z,999.87
2018-04-10T03:22:48.268Z,999.86
2018-04-10T03:23:28.870Z,999.83
2018-04-10T03:24:09.438Z,999.85
2018-04-10T03:24:50.059Z,999.86
2018-04-10T03:25:30.707Z,999.84
2018-04-10T03:26:11.265Z,999.9
2018-04-10T03:26:51.837Z,999.86
2018-04-10T03:27:32.457Z,999.82
2018-04-10T03:28:13.042Z,999.87
2018-04-10T03:28:53.682Z,999.89
2018-04-10T03:29:34.217Z,999.91
2018-04-10T03:30:14.798Z,999.92
2018-04-10T03:30:55.359Z,999.89
2018-04-10T03:31:35.935Z,999.9
2018-04-10T03:32:16.504Z,999.91
2018-04-10T03:32:57.061Z,999.89
2018-04-10T03:33:37.744Z,999.86
2018-04-10T03:34:18.316Z,999.87
2018-04-10T03:34:58.908Z,999.86
2018-04-10T03:35:39.459Z,999.93
2018-04-10T03:36:20.060Z,999.94
2018-04-10T03:37:00.619Z,999.91
2018-04-10T03:37:41.261Z,999.88
2018-04-10T03:38:21.822Z,999.9
2018-04-10T03:39:02.391Z,999.92
2018-04-10T03:39:42.963Z,999.95
2018-04-10T03:40:23.520Z,999.89
2018-04-10T03:41:04.210Z,999.89
2018-04-10T03:41:44.932Z,999.93
2018-04-10T03:42:25.555Z,999.87
2018-04-10T03:43:06.123Z,999.9
2018-04-10T03:43:46.683Z,999.9
2018-04-10T03:44:27.310Z,999.87
2018-04-10T03:45:07.859Z,999.87
2018-04-10T03:45:48.503Z,999.91
2018-04-10T03:46:29.082Z,999.9
2018-04-10T03:47:09.638Z,999.88
2018-04-10T03:47:50.233Z,999.88
2018-04-10T03:48:30.780Z,999.84
2018-04-10T03:49:11.351Z,999.83
2018-04-10T03:49:51.920Z,999.89
2018-04-10T03:50:32.479Z,999.89
2018-04-10T03:51:13.068Z,999.89
2018-04-10T03:51:53.623Z,999.87
2018-04-10T03:52:34.194Z,999.85
2018-04-10T03:53:14.774Z,999.87
2018-04-10T03:53:55.363Z,999.87
2018-04-10T03:54:35.961Z,999.87
2018-04-10T03:55:16.536Z,999.86
2018-04-10T03:55:57.116Z,999.83
2018-04-10T03:56:37.685Z,999.86
2018-04-10T03:57:18.255Z,999.8
2018-04-10T03:57:58.815Z,999.82
2018-04-10T03:58:39.687Z,999.83
2018-04-10T03:59:20.555Z,999.81
2018-04-10T04:00:01.194Z,999.81
2018-04-10T04:00:41.796Z,999.79
2018-04-10T04:01:22.358Z,999.79
2018-04-10T04:02:02.940Z,999.75
2018-04-10T04:02:43.544Z,999.72
2018-04-10T04:03:24.147Z,999.74
2018-04-10T04:04:04.732Z,999.77
2018-04-10T04:04:45.289Z,999.77
2018-04-10T04:05:25.859Z,999.8
2018-04-10T04:06:06.416Z,999.82
2018-04-10T04:06:47.028Z,999.76
2018-04-10T04:07:27.673Z,999.81
2018-04-10T04:08:08.234Z,999.81
2018-04-10T04:08:48.877Z,999.84
2018-04-10T04:09:29.375Z,999.83
2018-04-10T04:10:09.959Z,999.81
2018-04-10T04:10:50.538Z,999.78
2018-04-10T04:11:31.100Z,999.85
2018-04-10T04:12:11.679Z,999.8
2018-04-10T04:12:52.237Z,999.84
2018-04-10T04:13:32.792Z,999.79
2018-04-10T04:14:13.362Z,999.75
2018-04-10T04:14:53.927Z,999.78
2018-04-10T04:15:34.534Z,999.79
2018-04-10T04:16:15.091Z,999.83
2018-04-10T04:16:55.659Z,999.8
2018-04-10T04:17:36.208Z,999.78
2018-04-10T04:18:16.794Z,999.74
2018-04-10T04:18:57.430Z,999.71
2018-04-10T04:19:37.998Z,999.7
2018-04-10T04:20:18.571Z,999.73
2018-04-10T04:20:59.133Z,999.69
2018-04-10T04:21:39.695Z,999.68
2018-04-10T04:22:20.312Z,999.69
2018-04-10T04:23:00.905Z,999.69
2018-04-10T04:23:41.463Z,999.65
2018-04-10T04:24:22.019Z,999.7
2018-04-10T04:25:02.596Z,999.71
2018-04-10T04:25:43.207Z,999.69
2018-04-10T04:26:23.764Z,999.76
2018-04-10T04:27:04.341Z,999.72
2018-04-10T04:27:44.915Z,999.74
2018-04-10T04:28:25.482Z,999.71
2018-04-10T04:29:06.043Z,999.69
2018-04-10T04:29:46.606Z,999.77
2018-04-10T04:30:27.197Z,999.75
2018-04-10T04:31:07.849Z,999.76
2018-04-10T04:31:48.404Z,999.76
2018-04-10T04:32:28.990Z,999.77
2018-04-10T04:33:09.555Z,999.75
2018-04-10T04:33:50.137Z,999.72
2018-04-10T04:34:30.708Z,999.76
2018-04-10T04:35:11.286Z,999.75
2018-04-10T04:35:52.067Z,999.74
2018-04-10T04:36:32.663Z,999.76
2018-04-10T04:37:13.245Z,999.77
2018-04-10T04:37:53.812Z,999.77
2018-04-10T04:38:34.384Z,999.77
2018-04-10T04:39:14.970Z,999.82
2018-04-10T04:39:55.552Z,999.79
2018-04-10T04:40:36.339Z,999.84
2018-04-10T04:41:16.926Z,999.8
2018-04-10T04:41:57.505Z,999.85
2018-04-10T04:42:38.090Z,999.84
2018-04-10T04:43:18.692Z,999.81
2018-04-10T04:43:59.292Z,999.84
2018-04-10T04:44:39.882Z,999.9
2018-04-10T04:45:20.436Z,999.82
2018-04-10T04:46:01.036Z,999.87
2018-04-10T04:46:41.659Z,999.88
2018-04-10T04:47:22.235Z,999.86
2018-04-10T04:48:02.871Z,999.82
2018-04-10T04:48:43.445Z,999.82
2018-04-10T04:49:24.022Z,999.85
2018-04-10T04:50:04.585Z,999.89
2018-04-10T04:50:45.163Z,999.89
2018-04-10T04:51:25.725Z,999.92
2018-04-10T04:52:06.327Z,999.93
2018-04-10T04:52:47.106Z,999.91
2018-04-10T04:53:27.764Z,999.95
2018-04-10T04:54:08.292Z,1000.03
2018-04-10T04:54:48.870Z,1000.01
2018-04-10T04:55:29.430Z,1000.01
2018-04-10T04:56:09.984Z,999.98
2018-04-10T04:56:50.699Z,1000.02
2018-04-10T04:57:31.312Z,1000.04
2018-04-10T04:58:11.875Z,1000.01
2018-04-10T04:58:52.421Z,1000.01
2018-04-10T04:59:33.001Z,1000
2018-04-10T05:00:13.546Z,1000.03
2018-04-10T05:00:54.132Z,999.97
2018-04-10T05:01:34.771Z,1000.02
2018-04-10T05:02:15.423Z,999.98
2018-04-10T05:02:56.143Z,1000.02
2018-04-10T05:03:36.729Z,999.98
2018-04-10T05:04:17.305Z,999.95
2018-04-10T05:04:57.852Z,999.94
2018-04-10T05:05:38.428Z,999.92
2018-04-10T05:06:19.147Z,999.95
2018-04-10T05:06:59.718Z,999.96
2018-04-10T05:07:40.270Z,999.94
2018-04-10T05:08:20.930Z,999.93
2018-04-10T05:09:01.463Z,999.96
2018-04-10T05:09:42.273Z,999.98
2018-04-10T05:10:22.858Z,999.93
2018-04-10T05:11:03.424Z,999.94
2018-04-10T05:11:44.046Z,999.98
2018-04-10T05:12:24.572Z,999.96
2018-04-10T05:13:05.138Z,999.95
2018-04-10T05:13:45.808Z,999.97
2018-04-10T05:14:26.397Z,999.99
2018-04-10T05:15:06.959Z,999.95
2018-04-10T05:15:47.606Z,999.97
2018-04-10T05:16:28.169Z,999.98
2018-04-10T05:17:08.741Z,1000
2018-04-10T05:17:49.324Z,999.95
2018-04-10T05:18:30.158Z,999.95
2018-04-10T05:19:10.759Z,999.96
2018-04-10T05:19:51.411Z,999.97
2018-04-10T05:20:31.969Z,999.93
2018-04-10T05:21:12.530Z,999.92
2018-04-10T05:21:53.126Z,999.9
2018-04-10T05:22:33.909Z,999.94
2018-04-10T05:23:14.474Z,999.9
2018-04-10T05:23:55.039Z,999.89
2018-04-10T05:24:35.641Z,999.88
2018-04-10T05:25:16.205Z,999.9
2018-04-10T05:25:56.765Z,999.9
2018-04-10T05:26:37.514Z,999.89
2018-04-10T05:27:18.104Z,999.9
2018-04-10T05:27:58.688Z,999.95
2018-04-10T05:28:39.296Z,999.98
2018-04-10T05:29:19.900Z,1000.04
2018-04-10T05:30:00.486Z,1000.04
2018-04-10T05:30:41.083Z,1000.05
2018-04-10T05:31:21.693Z,1000.06
2018-04-10T05:32:02.256Z,1000.08
2018-04-10T05:32:42.828Z,1000.1
2018-04-10T05:33:23.420Z,1000.11
2018-04-10T05:34:04.069Z,1000.12
2018-04-10T05:34:44.579Z,1000.15
2018-04-10T05:35:25.234Z,1000.17
2018-04-10T05:36:05.853Z,1000.12
2018-04-10T05:36:46.407Z,1000.15
2018-04-10T05:37:26.978Z,1000.18
2018-04-10T05:38:07.532Z,1000.18
2018-04-10T05:38:48.096Z,1000.21
2018-04-10T05:39:28.646Z,1000.23
2018-04-10T05:40:09.205Z,1000.17
2018-04-10T05:40:49.906Z,1000.22
2018-04-10T05:41:30.464Z,1000.17
2018-04-10T05:42:11.045Z,1000.21
2018-04-10T05:42:51.680Z,1000.19
2018-04-10T05:43:32.243Z,1000.17
2018-04-10T05:44:13.238Z,1000.19
2018-04-10T05:44:53.766Z,1000.24
2018-04-10T05:45:34.368Z,1000.19
2018-04-10T05:46:14.929Z,1000.18
2018-04-10T05:46:55.510Z,1000.16
2018-04-10T05:47:36.164Z,1000.15
2018-04-10T05:48:16.754Z,1000.13
2018-04-10T05:48:59.183Z,1000.14
2018-04-10T05:49:38.560Z,1000.11
2018-04-10T05:50:19.261Z,1000.13
2018-04-10T05:50:59.852Z,1000.15
2018-04-10T05:51:40.551Z,1000.14
2018-04-10T05:52:21.360Z,1000.18
2018-04-10T05:53:02.074Z,1000.15
2018-04-10T05:53:42.635Z,1000.18
2018-04-10T05:54:23.226Z,1000.21
2018-04-10T05:55:03.782Z,1000.17
2018-04-10T05:55:44.375Z,1000.21
2018-04-10T05:56:25.017Z,1000.19
2018-04-10T05:57:05.580Z,1000.21
2018-04-10T05:57:46.176Z,1000.2
2018-04-10T05:58:26.762Z,1000.24
2018-04-10T05:59:07.346Z,1000.21
2018-04-10T05:59:48.589Z,1000.26
2018-04-10T06:00:30.018Z,1000.21
2018-04-10T06:01:11.215Z,1000.21
2018-04-10T06:01:51.789Z,1000.2
2018-04-10T06:02:32.432Z,1000.18
2018-04-10T06:03:13.021Z,1000.15
2018-04-10T06:03:53.799Z,1000.15
2018-04-10T06:04:34.406Z,1000.17
2018-04-10T06:05:15.058Z,1000.23
2018-04-10T06:05:55.641Z,1000.16
2018-04-10T06:06:36.229Z,1000.2
2018-04-10T06:07:16.843Z,1000.14
2018-04-10T06:07:57.467Z,1000.15
2018-04-10T06:08:38.041Z,1000.18
2018-04-10T06:09:18.773Z,1000.17
2018-04-10T06:09:59.549Z,1000.15
2018-04-10T06:10:40.146Z,1000.16
2018-04-10T06:11:20.708Z,1000.21
2018-04-10T06:12:02.328Z,1000.24
2018-04-10T06:12:42.929Z,1000.2
2018-04-10T06:13:23.515Z,1000.24
2018-04-10T06:14:04.166Z,1000.25
2018-04-10T06:14:44.853Z,1000.21
2018-04-10T06:15:25.496Z,1000.26
2018-04-10T06:16:06.178Z,1000.23
2018-04-10T06:16:46.748Z,1000.2
2018-04-10T06:17:27.346Z,1000.22
2018-04-10T06:18:07.905Z,1000.15
2018-04-10T06:18:48.473Z,1000.21
2018-04-10T06:19:29.050Z,1000.17
2018-04-10T06:20:09.640Z,1000.17
2018-04-10T06:20:50.208Z,1000.15
2018-04-10T06:21:30.775Z,1000.18
2018-04-10T06:22:11.348Z,1000.1
2018-04-10T06:22:51.907Z,1000.1
2018-04-10T06:23:32.481Z,1000.11
2018-04-10T06:24:13.033Z,1000.1
2018-04-10T06:24:53.601Z,1000.09
2018-04-10T06:25:34.166Z,1000.16
2018-04-10T06:26:14.735Z,1000.13
2018-04-10T06:26:55.315Z,1000.17
2018-04-10T06:27:35.880Z,1000.13
2018-04-10T06:28:16.469Z,1000.14
2018-04-10T06:28:57.170Z,1000.16
2018-04-10T06:29:37.734Z,1000.19
2018-04-10T06:30:18.296Z,1000.2
2018-04-10T06:30:58.916Z,1000.25
2018-04-10T06:31:39.470Z,1000.28
2018-04-10T06:32:20.048Z,1000.3
2018-04-10T06:33:00.625Z,1000.28
2018-04-10T06:33:41.312Z,1000.31
2018-04-10T06:34:21.873Z,1000.31
2018-04-10T06:35:02.460Z,1000.36
2018-04-10T06:35:43.047Z,1000.39
2018-04-10T06:36:23.618Z,1000.38
2018-04-10T06:37:04.302Z,1000.41
2018-04-10T06:37:44.867Z,1000.38
2018-04-10T06:38:25.472Z,1000.37
2018-04-10T06:39:06.030Z,1000.38
2018-04-10T06:39:46.613Z,1000.37
2018-04-10T06:40:27.181Z,1000.35
2018-04-10T06:41:07.762Z,1000.37
2018-04-10T06:41:48.419Z,1000.39
2018-04-10T06:42:29.211Z,1000.38
2018-04-10T06:43:09.778Z,1000.39
2018-04-10T06:43:50.347Z,1000.43
2018-04-10T06:44:30.945Z,1000.41
2018-04-10T06:45:11.535Z,1000.42
2018-04-10T06:45:52.161Z,1000.39
2018-04-10T06:46:32.780Z,1000.41
2018-04-10T06:47:13.345Z,1000.41
2018-04-10T06:47:53.956Z,1000.42
2018-04-10T06:48:34.735Z,1000.41
2018-04-10T06:49:15.162Z,1000.43
2018-04-10T06:49:55.727Z,1000.41
2018-04-10T06:50:36.300Z,1000.47
2018-04-10T06:51:16.879Z,1000.45
2018-04-10T06:51:57.452Z,1000.49
2018-04-10T06:52:38.019Z,1000.44
2018-04-10T06:53:18.604Z,1000.45
2018-04-10T06:53:59.170Z,1000.42
2018-04-10T06:54:39.746Z,1000.45
2018-04-10T06:55:20.314Z,1000.44
2018-04-10T06:56:00.969Z,1000.41
2018-04-10T06:56:41.537Z,1000.37
2018-04-10T06:57:22.120Z,1000.4
2018-04-10T06:58:02.711Z,1000.41
2018-04-10T06:58:43.275Z,1000.4
2018-04-10T06:59:23.845Z,1000.39
2018-04-10T07:00:04.425Z,1000.4
2018-04-10T07:00:45.109Z,1000.38
2018-04-10T07:01:25.691Z,1000.37
2018-04-10T07:02:06.257Z,1000.45
2018-04-10T07:02:46.841Z,1000.41
2018-04-10T07:03:27.414Z,1000.41
2018-04-10T07:04:08.051Z,1000.45
2018-04-10T07:04:48.707Z,1000.48
2018-04-10T07:05:29.300Z,1000.47
2018-04-10T07:06:09.865Z,1000.54
2018-04-10T07:06:50.686Z,1000.57
2018-04-10T07:07:31.084Z,1000.55
2018-04-10T07:08:11.631Z,1000.53
2018-04-10T07:08:52.220Z,1000.56
2018-04-10T07:09:32.957Z,1000.55
2018-04-10T07:10:13.543Z,1000.5
2018-04-10T07:10:54.127Z,1000.55
2018-04-10T07:11:34.689Z,1000.54
2018-04-10T07:12:15.302Z,1000.57
2018-04-10T07:12:55.910Z,1000.61
2018-04-10T07:13:36.556Z,1000.58
2018-04-10T07:14:17.122Z,1000.6
2018-04-10T07:14:57.711Z,1000.61
2018-04-10T07:15:38.340Z,1000.61
2018-04-10T07:16:19.053Z,1000.65
2018-04-10T07:16:59.657Z,1000.61
2018-04-10T07:17:43.168Z,1000.61
2018-04-10T07:18:23.745Z,1000.63
2018-04-10T07:19:04.319Z,1000.68
2018-04-10T07:19:44.998Z,1000.75
2018-04-10T07:20:25.603Z,1000.75
2018-04-10T07:21:06.179Z,1000.76
2018-04-10T07:21:46.749Z,1000.73
2018-04-10T07:22:27.347Z,1000.71
2018-04-10T07:23:07.919Z,1000.75
2018-04-10T07:23:48.525Z,1000.71
2018-04-10T07:24:29.329Z,1000.75
2018-04-10T07:25:10.054Z,1000.71
2018-04-10T07:25:50.657Z,1000.69
2018-04-10T07:26:31.356Z,1000.69
2018-04-10T07:27:11.884Z,1000.68
2018-04-10T07:27:52.491Z,1000.73
2018-04-10T07:28:33.072Z,1000.66
2018-04-10T07:29:13.732Z,1000.67
2018-04-10T07:29:54.318Z,1000.7
2018-04-10T07:30:34.900Z,1000.66
2018-04-10T07:31:15.560Z,1000.72
2018-04-10T07:31:56.139Z,1000.67
2018-04-10T07:32:36.727Z,1000.67
2018-04-10T07:33:17.306Z,1000.72
2018-04-10T07:33:57.898Z,1000.72
2018-04-10T07:34:38.487Z,1000.69
2018-04-10T07:35:19.272Z,1000.73
2018-04-10T07:35:59.763Z,1000.72
2018-04-10T07:36:40.372Z,1000.77
2018-04-10T07:37:20.946Z,1000.77
2018-04-10T07:38:01.716Z,1000.75
2018-04-10T07:38:42.308Z,1000.75
2018-04-10T07:39:22.881Z,1000.77
2018-04-10T07:40:10.665Z,1000.68
2018-04-10T07:40:51.255Z,1000.76
2018-04-10T07:41:31.886Z,1000.75
2018-04-10T07:42:12.512Z,1000.79
2018-04-10T07:42:53.159Z,1000.85
2018-04-10T07:43:33.957Z,1000.81
2018-04-10T07:44:14.705Z,1000.79
2018-04-10T07:44:55.309Z,1000.82
2018-04-10T07:45:35.902Z,1000.77
2018-04-10T07:46:16.464Z,1000.78
2018-04-10T07:46:57.044Z,1000.75
2018-04-10T07:47:37.709Z,1000.75
2018-04-10T07:48:18.435Z,1000.76
2018-04-10T07:48:59.040Z,1000.81
2018-04-10T07:49:39.617Z,1000.84
2018-04-10T07:50:20.253Z,1000.82
2018-04-10T07:51:00.836Z,1000.83
2018-04-10T07:51:41.437Z,1000.83
2018-04-10T07:52:22.038Z,1000.83
2018-04-10T07:53:02.689Z,1000.82
2018-04-10T07:53:43.268Z,1000.85
2018-04-10T07:54:23.889Z,1000.83
2018-04-10T07:55:04.454Z,1000.84
2018-04-10T07:55:45.026Z,1000.81
2018-04-10T07:56:25.715Z,1000.84
2018-04-10T07:57:06.336Z,1000.84
2018-04-10T07:57:46.904Z,1000.85
2018-04-10T07:58:27.504Z,1000.85
2018-04-10T07:59:08.070Z,1000.82
2018-04-10T07:59:48.644Z,1000.85
2018-04-10T08:00:29.225Z,1000.81
2018-04-10T08:01:09.811Z,1000.78
2018-04-10T08:01:50.380Z,1000.81
2018-04-10T08:02:31.017Z,1000.81
2018-04-10T08:03:11.541Z,1000.79
2018-04-10T08:03:52.116Z,1000.82
2018-04-10T08:04:32.700Z,1000.83
2018-04-10T08:05:13.279Z,1000.79
2018-04-10T08:05:53.855Z,1000.83
2018-04-10T08:06:34.442Z,1000.85
2018-04-10T08:07:15.030Z,1000.81
2018-04-10T08:07:55.607Z,1000.84
2018-04-10T08:08:36.187Z,1000.86
2018-04-10T08:09:16.772Z,1000.82
2018-04-10T08:09:57.388Z,1000.81
2018-04-10T08:10:37.963Z,1000.77
2018-04-10T08:11:18.534Z,1000.8
2018-04-10T08:11:59.152Z,1000.79
2018-04-10T08:12:39.772Z,1000.75
2018-04-10T08:13:20.370Z,1000.75
2018-04-10T08:14:00.933Z,1000.74
2018-04-10T08:14:41.570Z,1000.76
2018-04-10T08:15:22.150Z,1000.73
2018-04-10T08:16:02.738Z,1000.72
2018-04-10T08:16:43.322Z,1000.74
2018-04-10T08:17:23.909Z,1000.67
2018-04-10T08:18:04.483Z,1000.73
2018-04-10T08:18:45.069Z,1000.75
2018-04-10T08:19:25.765Z,1000.73
2018-04-10T08:20:06.352Z,1000.71
2018-04-10T08:20:46.937Z,1000.73
2018-04-10T08:21:27.675Z,1000.77
2018-04-10T08:22:08.280Z,1000.73
2018-04-10T08:22:48.864Z,1000.75
2018-04-10T08:23:29.430Z,1000.78
2018-04-10T08:24:10.043Z,1000.76